createdAt,value
2018-08-24T00:01:34.967Z,3.80
2018-08-24T00:04:07.259Z,10.20
2018-08-24T00:06:36.102Z,9.10
2018-08-24T00:09:09.083Z,6.13
2018-08-24T00:11:38.079Z,3.40
2018-08-24T00:14:09.925Z,10.10
2018-08-24T00:16:43.927Z,5.13
2018-08-24T00:19:13.813Z,9.87
2018-08-24T00:21:42.358Z,5.97
2018-08-24T00:24:12.928Z,7.03
2018-08-24T00:26:41.188Z,9.00
2018-08-24T00:29:09.767Z,8.00
2018-08-24T00:31:38.698Z,6.83
2018-08-24T00:34:07.186Z,9.43
2018-08-24T00:36:35.463Z,18.40
2018-08-24T00:39:05.480Z,7.70
2018-08-24T00:41:33.761Z,4.87
2018-08-24T00:44:02.051Z,4.10
2018-08-24T00:46:30.333Z,2.67
2018-08-24T00:48:58.602Z,2.03
2018-08-24T00:51:26.862Z,2.00
2018-08-24T00:53:55.180Z,1.43
2018-08-24T00:56:23.407Z,4.30
2018-08-24T00:58:51.674Z,3.77
2018-08-24T01:01:19.977Z,1.80
2018-08-24T01:03:48.255Z,1.73
2018-08-24T01:06:20.825Z,1.77
2018-08-24T01:08:49.341Z,3.67
2018-08-24T01:11:17.648Z,3.53
2018-08-24T01:13:50.139Z,4.30
2018-08-24T01:16:24.183Z,4.90
2018-08-24T01:18:52.531Z,9.93
2018-08-24T01:21:20.995Z,3.73
2018-08-24T01:23:49.702Z,1.93
2018-08-24T01:26:22.011Z,2.23
2018-08-24T01:28:51.373Z,4.73
2018-08-24T01:31:19.847Z,6.87
2018-08-24T01:33:48.119Z,4.57
2018-08-24T01:36:16.703Z,7.33
2018-08-24T01:38:45.271Z,4.50
2018-08-24T01:41:13.706Z,2.23
2018-08-24T01:43:42.411Z,5.33
2018-08-24T01:46:15.807Z,4.03
2018-08-24T01:48:44.493Z,3.57
2018-08-24T01:51:14.443Z,6.07
2018-08-24T01:53:50.123Z,11.37
2018-08-24T01:56:20.105Z,3.67
2018-08-24T01:58:49.062Z,13.63
2018-08-24T02:01:17.516Z,3.90
2018-08-24T02:03:46.754Z,5.13
2018-08-24T02:06:17.483Z,2.70
2018-08-24T02:08:52.396Z,3.93
2018-08-24T02:11:26.033Z,3.57
2018-08-24T02:14:01.263Z,6.83
2018-08-24T02:16:32.544Z,4.33
2018-08-24T02:25:05.970Z,3.90
2018-08-24T02:28:06.963Z,5.27
2018-08-24T02:30:35.360Z,7.10
2018-08-24T02:33:04.078Z,10.40
2018-08-24T02:35:52.055Z,3.60
2018-08-24T02:38:38.219Z,3.57
2018-08-24T02:41:50.656Z,3.73
2018-08-24T02:44:18.986Z,4.87
2018-08-24T02:46:51.696Z,4.33
2018-08-24T02:52:19.637Z,4.50
2018-08-24T02:54:48.300Z,7.47
2018-08-24T02:58:27.300Z,5.77
2018-08-24T03:00:55.669Z,3.17
2018-08-24T03:03:25.069Z,9.37
2018-08-24T03:06:39.441Z,7.17
2018-08-24T03:09:18.391Z,5.53
2018-08-24T03:16:38.475Z,10.43
2018-08-24T03:19:27.649Z,6.43
2018-08-24T03:22:03.846Z,5.10
2018-08-24T03:24:36.936Z,3.10
2018-08-24T03:27:09.868Z,4.97
2018-08-24T03:29:56.653Z,7.30
2018-08-24T03:32:32.624Z,6.80
2018-08-24T03:35:32.214Z,2.80
2018-08-24T03:38:01.291Z,2.83
2018-08-24T03:40:29.844Z,9.23
2018-08-24T03:42:58.819Z,12.73
2018-08-24T03:45:27.122Z,9.27
2018-08-24T03:47:57.868Z,9.60
2018-08-24T03:50:26.300Z,9.00
2018-08-24T03:52:54.888Z,10.50
2018-08-24T03:55:23.193Z,6.03
2018-08-24T03:57:51.526Z,10.27
2018-08-24T04:00:20.016Z,8.67
2018-08-24T04:02:48.616Z,12.97
2018-08-24T04:05:17.823Z,8.47
2018-08-24T04:07:46.756Z,8.00
2018-08-24T04:10:15.440Z,12.77
2018-08-24T04:12:43.905Z,9.17
2018-08-24T04:15:12.271Z,8.33
2018-08-24T04:17:44.232Z,11.73
2018-08-24T04:20:13.635Z,9.33
2018-08-24T04:22:41.977Z,21.37
2018-08-24T04:25:11.090Z,12.27
2018-08-24T04:27:40.139Z,18.23
2018-08-24T04:30:09.275Z,31.20
2018-08-24T04:32:37.741Z,13.70
2018-08-24T04:35:06.564Z,14.43
2018-08-24T04:37:35.469Z,16.07
2018-08-24T04:40:04.597Z,13.50
2018-08-24T04:42:34.608Z,14.33
2018-08-24T04:45:08.353Z,12.17
2018-08-24T04:47:38.642Z,18.23
2018-08-24T04:50:07.057Z,17.60
2018-08-24T04:52:37.260Z,20.00
2018-08-24T04:55:07.596Z,12.13
2018-08-24T04:57:36.791Z,10.77
2018-08-24T05:00:05.364Z,15.43
2018-08-24T05:02:33.718Z,18.30
2018-08-24T05:05:02.035Z,17.37
2018-08-24T05:07:30.421Z,15.27
2018-08-24T05:10:04.881Z,21.80
2018-08-24T05:12:33.184Z,14.23
2018-08-24T05:15:01.499Z,11.23
2018-08-24T05:17:30.852Z,17.20
2018-08-24T05:19:59.662Z,15.43
2018-08-24T05:22:28.814Z,19.37
2018-08-24T05:24:57.507Z,10.50
2018-08-24T05:27:26.845Z,18.50
2018-08-24T05:29:55.548Z,14.00
2018-08-24T05:32:23.835Z,16.00
2018-08-24T05:34:52.111Z,13.37
2018-08-24T05:37:20.365Z,15.43
2018-08-24T05:39:48.690Z,22.90
2018-08-24T05:42:16.946Z,16.70
2018-08-24T05:44:45.214Z,21.03
2018-08-24T05:47:13.488Z,17.87
2018-08-24T05:49:41.740Z,19.53
2018-08-24T05:52:10.006Z,23.63
2018-08-24T05:54:38.263Z,19.97
2018-08-24T05:57:06.800Z,22.60
2018-08-24T05:59:35.075Z,15.20
2018-08-24T06:02:03.372Z,17.80
2018-08-24T06:04:31.675Z,25.60
2018-08-24T06:06:59.913Z,26.70
2018-08-24T06:09:28.170Z,15.70
2018-08-24T06:11:56.506Z,19.73
2018-08-24T06:14:24.752Z,22.47
2018-08-24T06:16:58.320Z,19.93
2018-08-24T06:19:26.582Z,29.07
2018-08-24T06:21:54.875Z,23.70
2018-08-24T06:24:23.217Z,29.83
2018-08-24T06:26:51.437Z,30.37
2018-08-24T06:29:19.722Z,24.30
2018-08-24T06:31:47.946Z,31.57
2018-08-24T06:34:16.237Z,23.03
2018-08-24T06:36:44.501Z,23.40
2018-08-24T06:39:14.026Z,25.13
2018-08-24T06:41:42.998Z,26.03
2018-08-24T06:44:11.218Z,26.07
2018-08-24T06:46:39.465Z,27.90
2018-08-24T06:49:07.753Z,22.77
2018-08-24T06:51:36.067Z,23.87
2018-08-24T06:54:04.445Z,21.27
2018-08-24T06:56:32.607Z,30.90
2018-08-24T06:59:00.858Z,31.43
2018-08-24T07:01:29.128Z,30.03
2018-08-24T07:03:57.376Z,23.00
2018-08-24T07:06:25.649Z,26.03
2018-08-24T07:08:54.012Z,21.57
2018-08-24T07:11:22.281Z,34.23
2018-08-24T07:13:50.696Z,18.97
2018-08-24T07:16:19.154Z,24.40
2018-08-24T07:18:47.483Z,30.13
2018-08-24T07:21:15.774Z,35.50
2018-08-24T07:23:44.025Z,22.53
2018-08-24T07:26:12.301Z,22.50
2018-08-24T07:28:40.802Z,23.07
2018-08-24T07:31:09.203Z,23.20
2018-08-24T07:33:37.494Z,23.20
2018-08-24T07:36:05.758Z,35.70
2018-08-24T07:38:34.079Z,34.70
2018-08-24T07:41:02.363Z,37.30
2018-08-24T07:43:30.638Z,25.43
2018-08-24T07:45:58.904Z,37.93
2018-08-24T07:48:27.214Z,37.00
2018-08-24T07:50:55.523Z,23.83
2018-08-24T07:53:23.786Z,33.77
2018-08-24T07:55:52.503Z,32.90
2018-08-24T07:58:20.760Z,23.10
2018-08-24T08:00:49.039Z,25.90
2018-08-24T08:03:17.326Z,21.70
2018-08-24T08:05:45.607Z,28.67
2018-08-24T08:08:13.861Z,22.00
2018-08-24T08:10:42.295Z,43.60
2018-08-24T08:13:11.741Z,22.33
2018-08-24T08:15:40.294Z,23.40
2018-08-24T08:18:08.686Z,23.30
2018-08-24T08:20:36.927Z,26.07
2018-08-24T08:23:05.364Z,22.80
2018-08-24T08:25:33.615Z,33.03
2018-08-24T08:28:01.883Z,29.80
2018-08-24T08:30:30.166Z,31.00
2018-08-24T08:32:58.451Z,28.03
2018-08-24T08:35:26.697Z,35.27
2018-08-24T08:37:54.962Z,23.60
2018-08-24T08:40:23.253Z,26.53
2018-08-24T08:42:51.542Z,27.27
2018-08-24T08:45:19.848Z,29.50
2018-08-24T08:47:48.328Z,24.53
2018-08-24T08:50:16.588Z,23.67
2018-08-24T08:52:44.849Z,28.10
2018-08-24T08:55:13.106Z,32.47
2018-08-24T08:57:41.374Z,31.07
2018-08-24T09:00:09.662Z,19.97
2018-08-24T09:02:37.904Z,31.90
2018-08-24T09:05:06.439Z,23.90
2018-08-24T09:07:34.784Z,21.17
2018-08-24T09:10:03.099Z,23.10
2018-08-24T09:12:31.343Z,21.00
2018-08-24T09:14:59.611Z,20.70
2018-08-24T09:17:33.431Z,35.13
2018-08-24T09:20:06.920Z,28.40
2018-08-24T09:22:40.612Z,27.00
2018-08-24T09:25:14.298Z,47.20
2018-08-24T09:28:47.308Z,22.10
2018-08-24T09:31:18.812Z,28.40
2018-08-24T09:33:47.206Z,27.23
2018-08-24T09:36:18.523Z,29.57
2018-08-24T09:38:47.059Z,23.90
2018-08-24T09:41:15.382Z,23.00
2018-08-24T09:43:48.949Z,15.73
2018-08-24T09:46:17.227Z,16.13
2018-08-24T09:48:50.806Z,20.57
2018-08-24T09:51:25.330Z,12.87
2018-08-24T09:53:59.076Z,11.13
2018-08-24T09:56:28.440Z,9.73
2018-08-24T09:58:57.036Z,8.50
2018-08-24T10:01:30.815Z,6.37
2018-08-24T10:04:04.434Z,12.93
2018-08-24T10:06:38.155Z,12.97
2018-08-24T10:09:09.345Z,14.10
2018-08-24T10:11:37.642Z,16.60
2018-08-24T10:14:06.275Z,11.33
2018-08-24T10:16:34.555Z,12.73
2018-08-24T10:19:03.106Z,9.53
2018-08-24T10:21:31.480Z,11.03
2018-08-24T10:23:59.874Z,13.60
2018-08-24T10:26:28.207Z,9.57
2018-08-24T10:28:56.491Z,12.87
2018-08-24T10:31:24.783Z,6.63
2018-08-24T10:33:53.230Z,14.67
2018-08-24T10:36:21.387Z,5.63
2018-08-24T10:38:49.702Z,11.47
2018-08-24T10:41:18.007Z,10.83
2018-08-24T10:43:46.267Z,16.50
2018-08-24T10:46:15.067Z,11.77
2018-08-24T10:48:43.370Z,10.83
2018-08-24T10:51:15.421Z,19.67
2018-08-24T10:53:46.185Z,12.73
2018-08-24T10:56:14.521Z,10.63
2018-08-24T10:58:42.768Z,20.57
2018-08-24T11:01:11.067Z,9.17
2018-08-24T11:03:39.447Z,7.90
2018-08-24T11:06:07.730Z,9.07
2018-08-24T11:08:37.765Z,7.10
2018-08-24T11:11:06.139Z,12.77
2018-08-24T11:13:34.415Z,8.20
2018-08-24T11:16:02.682Z,11.73
2018-08-24T11:18:30.938Z,15.00
2018-08-24T11:21:00.613Z,7.70
2018-08-24T11:23:28.881Z,18.30
2018-08-24T11:25:57.881Z,9.90
2018-08-24T11:28:26.367Z,11.83
2018-08-24T11:30:54.677Z,8.53
2018-08-24T11:33:22.986Z,16.17
2018-08-24T11:35:51.421Z,13.73
2018-08-24T11:38:19.880Z,9.87
2018-08-24T11:40:48.276Z,10.97
2018-08-24T11:43:16.575Z,9.13
2018-08-24T11:45:44.878Z,10.47
2018-08-24T11:48:13.245Z,14.50
2018-08-24T11:50:41.607Z,8.90
2018-08-24T11:53:09.859Z,8.07
2018-08-24T11:55:38.164Z,7.37
2018-08-24T11:58:06.464Z,13.03
2018-08-24T12:00:35.195Z,15.73
2018-08-24T12:03:04.377Z,9.77
2018-08-24T12:05:33.302Z,13.63
2018-08-24T12:08:01.991Z,8.93
2018-08-24T12:10:30.282Z,7.10
2018-08-24T12:12:58.955Z,7.60
2018-08-24T12:15:27.472Z,10.10
2018-08-24T12:17:56.326Z,4.13
2018-08-24T12:20:24.625Z,16.97
2018-08-24T12:22:53.010Z,6.43
2018-08-24T12:25:21.399Z,8.67
2018-08-24T12:27:49.734Z,7.60
2018-08-24T12:30:18.046Z,10.57
2018-08-24T12:32:46.334Z,8.93
2018-08-24T12:35:14.895Z,7.90
2018-08-24T12:37:43.199Z,3.03
2018-08-24T12:40:11.668Z,7.40
2018-08-24T12:42:40.040Z,11.03
2018-08-24T12:45:09.446Z,11.20
2018-08-24T12:47:38.497Z,5.00
2018-08-24T12:50:07.787Z,11.27
2018-08-24T12:52:38.671Z,3.53
2018-08-24T12:55:07.590Z,12.30
2018-08-24T12:57:36.401Z,9.50
2018-08-24T13:00:05.728Z,4.90
2018-08-24T13:02:44.161Z,7.23
2018-08-24T13:05:12.837Z,7.50
2018-08-24T13:07:42.962Z,3.07
2018-08-24T13:10:12.197Z,5.20
2018-08-24T13:13:20.261Z,6.60
2018-08-24T13:21:58.011Z,5.60
2018-08-24T13:24:30.643Z,7.13
2018-08-24T13:27:03.725Z,3.80
2018-08-24T13:29:38.821Z,6.90
2018-08-24T13:32:09.337Z,7.40
2018-08-24T13:34:40.599Z,8.57
2018-08-24T13:37:09.960Z,3.53
2018-08-24T13:39:38.535Z,20.20
2018-08-24T13:42:07.258Z,6.23
2018-08-24T13:47:11.143Z,9.27
2018-08-24T13:49:39.579Z,7.37
2018-08-24T13:52:09.594Z,7.60
2018-08-24T13:54:37.929Z,8.37
2018-08-24T13:57:07.947Z,5.40
2018-08-24T13:59:36.291Z,6.97
2018-08-24T14:02:04.579Z,2.97
2018-08-24T14:04:34.748Z,3.90
2018-08-24T14:07:03.023Z,4.03
2018-08-24T14:09:31.376Z,3.03
2018-08-24T14:11:59.627Z,5.40
2018-08-24T14:14:28.014Z,13.00
2018-08-24T14:16:56.450Z,7.27
2018-08-24T14:19:36.178Z,5.93
2018-08-24T14:22:06.423Z,4.57
2018-08-24T14:24:34.937Z,5.93
2018-08-24T14:27:03.282Z,8.63
2018-08-24T14:29:35.119Z,5.57
2018-08-24T14:32:04.891Z,3.93
2018-08-24T14:34:37.047Z,5.03
2018-08-24T14:37:06.459Z,5.53
2018-08-24T14:39:35.745Z,3.33
2018-08-24T14:42:05.021Z,8.33
2018-08-24T14:44:37.990Z,5.70
2018-08-24T14:47:08.160Z,7.50
2018-08-24T14:49:38.753Z,14.40
2018-08-24T14:52:18.070Z,5.43
2018-08-24T14:54:51.098Z,5.00
2018-08-24T14:57:22.648Z,6.93
2018-08-24T14:59:51.869Z,8.03
2018-08-24T15:02:20.206Z,10.40
2018-08-24T15:04:48.514Z,3.23
2018-08-24T15:07:16.783Z,7.37
2018-08-24T15:09:45.607Z,2.70
2018-08-24T15:12:13.908Z,7.60
2018-08-24T15:14:42.201Z,9.17
2018-08-24T15:17:10.506Z,6.00
2018-08-24T15:19:39.371Z,6.67
2018-08-24T15:22:10.630Z,2.50
2018-08-24T15:24:39.418Z,5.33
2018-08-24T15:27:08.415Z,10.80
2018-08-24T15:29:46.628Z,9.40
2018-08-24T15:32:21.709Z,5.43
2018-08-24T15:35:17.281Z,5.37
2018-08-24T15:37:47.438Z,11.87
2018-08-24T15:40:16.161Z,7.70
2018-08-24T15:42:58.353Z,5.10
2018-08-24T15:45:36.691Z,11.57
2018-08-24T15:48:29.058Z,5.80
2018-08-24T15:50:58.285Z,7.70
2018-08-24T15:53:45.138Z,2.23
2018-08-24T15:56:20.075Z,10.90
2018-08-24T15:59:06.245Z,6.37
2018-08-24T16:04:28.788Z,6.80
2018-08-24T16:07:30.750Z,2.30
2018-08-24T16:10:07.138Z,7.30
2018-08-24T16:12:41.815Z,10.20
2018-08-24T16:20:14.161Z,13.77
2018-08-24T16:22:57.354Z,4.10
2018-08-24T16:25:27.969Z,7.97
2018-08-24T16:27:57.252Z,10.03
2018-08-24T16:30:26.247Z,5.33
2018-08-24T16:32:56.993Z,8.17
2018-08-24T16:35:27.351Z,7.20
2018-08-24T16:37:56.377Z,7.40
2018-08-24T16:40:25.143Z,11.10
2018-08-24T16:42:54.143Z,9.70
2018-08-24T16:45:23.317Z,13.90
2018-08-24T16:47:52.772Z,9.73
2018-08-24T16:50:21.793Z,3.90
2018-08-24T16:52:55.627Z,9.87
2018-08-24T16:55:24.466Z,4.40
2018-08-24T16:57:53.835Z,8.60
2018-08-24T17:00:22.647Z,8.53
2018-08-24T17:02:51.676Z,10.73
2018-08-24T17:05:22.307Z,7.50
2018-08-24T17:07:52.347Z,6.00
2018-08-24T17:10:21.261Z,8.40
2018-08-24T17:12:50.259Z,5.03
2018-08-24T17:15:19.175Z,15.47
2018-08-24T17:17:48.253Z,9.93
2018-08-24T17:20:16.831Z,5.00
2018-08-24T17:22:45.861Z,7.03
2018-08-24T17:25:14.720Z,10.03
2018-08-24T17:27:43.736Z,8.03
2018-08-24T17:30:12.436Z,14.17
2018-08-24T17:32:41.285Z,12.57
2018-08-24T17:35:10.454Z,14.10
2018-08-24T17:37:39.221Z,5.60
2018-08-24T17:40:08.052Z,11.00
2018-08-24T17:42:37.601Z,3.23
2018-08-24T17:45:06.627Z,5.37
2018-08-24T17:47:35.303Z,6.30
2018-08-24T17:50:05.453Z,7.27
2018-08-24T17:52:34.295Z,20.77
2018-08-24T17:55:06.220Z,14.70
2018-08-24T17:57:54.556Z,8.97
2018-08-24T18:01:08.680Z,10.80
2018-08-24T18:03:46.843Z,9.47
2018-08-24T18:06:27.624Z,9.70
2018-08-24T18:09:03.772Z,16.83
2018-08-24T18:11:35.175Z,13.43
2018-08-24T18:14:23.798Z,12.80
2018-08-24T18:17:04.264Z,11.67
2018-08-24T18:19:37.693Z,10.43
2018-08-24T18:22:08.621Z,9.03
2018-08-24T18:24:39.697Z,8.33
2018-08-24T18:27:09.450Z,7.90
2018-08-24T18:29:38.201Z,6.80
2018-08-24T18:32:07.408Z,7.50
2018-08-24T18:34:37.277Z,9.67
2018-08-24T18:37:06.403Z,12.30
2018-08-24T18:39:35.053Z,5.73
2018-08-24T18:42:03.929Z,4.40
2018-08-24T18:44:32.849Z,2.80
2018-08-24T18:47:01.578Z,10.67
2018-08-24T18:49:30.215Z,4.40
2018-08-24T18:51:58.985Z,8.83
2018-08-24T18:54:27.704Z,9.63
2018-08-24T18:56:56.396Z,4.53
2018-08-24T18:59:25.430Z,4.00
2018-08-24T19:01:57.475Z,5.47
2018-08-24T19:04:26.312Z,9.43
2018-08-24T19:06:54.930Z,5.77
2018-08-24T19:09:23.707Z,17.57
2018-08-24T19:11:57.791Z,10.80
2018-08-24T19:14:26.559Z,6.57
2018-08-24T19:16:59.369Z,5.50
2018-08-24T19:19:33.386Z,5.83
2018-08-24T19:22:04.156Z,7.40
2018-08-24T19:24:33.309Z,5.83
2018-08-24T19:27:02.641Z,9.50
2018-08-24T19:29:37.566Z,8.37
2018-08-24T19:32:17.434Z,6.47
2018-08-24T19:34:54.664Z,3.63
2018-08-24T19:37:24.047Z,3.73
2018-08-24T19:39:57.974Z,9.80
2018-08-24T19:42:28.815Z,4.57
2018-08-24T19:45:03.928Z,4.30
2018-08-24T19:47:37.647Z,5.90
2018-08-24T19:50:06.224Z,3.60
2018-08-24T19:52:34.903Z,3.57
2018-08-24T19:55:10.917Z,6.23
2018-08-24T19:57:50.832Z,5.73
2018-08-24T20:00:19.469Z,3.50
2018-08-24T20:02:47.723Z,6.07
2018-08-24T20:05:16.254Z,7.10
2018-08-24T20:07:49.987Z,4.73
2018-08-24T20:10:19.498Z,14.00
2018-08-24T20:12:48.306Z,3.10
2018-08-24T20:15:22.059Z,8.50
2018-08-24T20:17:50.585Z,5.37
2018-08-24T20:20:18.883Z,12.73
2018-08-24T20:22:47.264Z,6.70
2018-08-24T20:25:15.511Z,9.27
2018-08-24T20:27:43.790Z,8.70
2018-08-24T20:30:15.180Z,4.53
2018-08-24T20:32:44.420Z,18.93
2018-08-24T20:35:13.049Z,4.50
2018-08-24T20:40:44.587Z,6.23
2018-08-24T20:43:13.427Z,3.83
2018-08-24T20:45:42.515Z,7.30
2018-08-24T20:48:10.976Z,7.30
2018-08-24T20:50:39.511Z,13.20
2018-08-24T20:53:07.959Z,13.97
2018-08-24T20:55:36.342Z,3.80
2018-08-24T20:58:04.705Z,6.60
2018-08-24T21:00:40.894Z,7.60
2018-08-24T21:03:09.198Z,3.03
2018-08-24T21:05:37.544Z,8.40
2018-08-24T21:08:06.576Z,6.13
2018-08-24T21:10:36.123Z,5.47
2018-08-24T21:13:04.375Z,7.03
2018-08-24T21:15:33.959Z,3.03
2018-08-24T21:18:02.359Z,6.57
2018-08-24T21:20:30.748Z,9.50
2018-08-24T21:22:59.082Z,2.30
2018-08-24T21:25:28.489Z,7.17
2018-08-24T21:27:56.764Z,10.17
2018-08-24T21:30:26.426Z,6.37
2018-08-24T21:32:54.798Z,14.10
2018-08-24T21:35:24.355Z,6.87
2018-08-24T21:37:52.689Z,6.23
2018-08-24T21:40:21.012Z,2.33
2018-08-24T21:42:49.282Z,5.50
2018-08-24T21:45:19.431Z,11.40
2018-08-24T21:47:48.181Z,2.30
2018-08-24T21:50:16.735Z,4.17
2018-08-24T21:52:45.234Z,8.13
2018-08-24T21:55:13.486Z,9.03
2018-08-24T21:57:41.779Z,4.97
2018-08-24T22:00:13.619Z,7.67
2018-08-24T22:02:42.010Z,6.40
2018-08-24T22:05:10.522Z,17.33
2018-08-24T22:07:38.829Z,12.53
2018-08-24T22:10:07.190Z,9.07
2018-08-24T22:12:35.787Z,9.07
2018-08-24T22:15:04.121Z,5.87
2018-08-24T22:17:32.404Z,5.13
2018-08-24T22:20:00.640Z,10.83
2018-08-24T22:22:28.942Z,4.07
2018-08-24T22:24:57.239Z,5.10
2018-08-24T22:27:25.551Z,5.50
2018-08-24T22:29:53.857Z,8.77
2018-08-24T22:32:22.135Z,4.90
2018-08-24T22:34:50.367Z,6.87
2018-08-24T22:37:18.680Z,5.33
2018-08-24T22:39:46.921Z,17.00
2018-08-24T22:42:15.263Z,16.70
2018-08-24T22:44:43.550Z,5.90
2018-08-24T22:47:12.082Z,2.07
2018-08-24T22:49:40.574Z,13.83
2018-08-24T22:52:08.924Z,6.33
2018-08-24T22:54:37.260Z,6.10
2018-08-24T22:57:05.708Z,18.23
2018-08-24T22:59:34.094Z,7.03
2018-08-24T23:02:02.432Z,7.13
2018-08-24T23:04:30.875Z,5.43
2018-08-24T23:06:59.264Z,4.33
2018-08-24T23:09:27.783Z,1.80
2018-08-24T23:11:56.305Z,3.70
2018-08-24T23:14:24.883Z,6.67
2018-08-24T23:16:53.216Z,11.93
2018-08-24T23:19:21.495Z,5.60
2018-08-24T23:21:49.797Z,11.37
2018-08-24T23:24:18.221Z,7.07
2018-08-24T23:26:46.532Z,7.37
2018-08-24T23:29:15.134Z,6.10
2018-08-24T23:31:43.437Z,5.67
2018-08-24T23:34:11.867Z,4.07
2018-08-24T23:36:40.090Z,7.27
2018-08-24T23:39:09.461Z,14.03
2018-08-24T23:41:37.754Z,11.83
2018-08-24T23:44:06.089Z,2.73
2018-08-24T23:46:34.394Z,8.20
2018-08-24T23:49:02.876Z,11.40
2018-08-24T23:51:31.416Z,3.30
2018-08-24T23:53:59.683Z,7.70
2018-08-24T23:56:27.970Z,15.83
2018-08-24T23:58:56.218Z,7.70
